sensor_id;sensor_type;location;lat;lon;timestamp;pressure;altitude;pressure_sealevel;temperature;humidity
84496;BME280;74855;51.206;17.408;2024-03-02T00:00:57;99120.81;;;10.16;79.44
84496;BME280;74855;51.206;17.408;2024-03-02T00:05:53;99117.81;;;10.13;79.98
84496;BME280;74855;51.206;17.408;2024-03-02T00:10:49;99112.00;;;10.11;79.22
84496;BME280;74855;51.206;17.408;2024-03-02T00:15:46;99111.44;;;10.09;79.44
84496;BME280;74855;51.206;17.408;2024-03-02T00:20:44;99111.19;;;10.10;79.63
84496;BME280;74855;51.206;17.408;2024-03-02T00:25:41;99112.00;;;10.11;79.46
84496;BME280;74855;51.206;17.408;2024-03-02T00:31:04;99090.13;;;10.10;79.50
84496;BME280;74855;51.206;17.408;2024-03-02T00:36:02;99088.53;;;10.09;79.03
84496;BME280;74855;51.206;17.408;2024-03-02T00:40:58;99085.09;;;10.09;79.50
84496;BME280;74855;51.206;17.408;2024-03-02T00:45:55;99082.47;;;10.09;79.91
84496;BME280;74855;51.206;17.408;2024-03-02T00:50:51;99086.34;;;10.06;79.91
84496;BME280;74855;51.206;17.408;2024-03-02T00:55:49;99095.66;;;9.97;78.88
84496;BME280;74855;51.206;17.408;2024-03-02T01:00:44;99090.06;;;9.82;79.46
84496;BME280;74855;51.206;17.408;2024-03-02T01:05:41;99087.31;;;9.65;79.40
84496;BME280;74855;51.206;17.408;2024-03-02T01:10:37;99089.81;;;9.48;79.81
84496;BME280;74855;51.206;17.408;2024-03-02T01:15:34;99099.09;;;9.28;79.55
84496;BME280;74855;51.206;17.408;2024-03-02T01:20:30;99105.59;;;9.13;80.40
84496;BME280;74855;51.206;17.408;2024-03-02T01:25:26;99101.56;;;9.11;80.32
84496;BME280;74855;51.206;17.408;2024-03-02T01:30:22;99095.41;;;9.17;80.16
84496;BME280;74855;51.206;17.408;2024-03-02T01:35:19;99093.47;;;9.24;80.04
84496;BME280;74855;51.206;17.408;2024-03-02T01:40:14;99094.63;;;9.28;80.11
84496;BME280;74855;51.206;17.408;2024-03-02T01:45:10;99101.84;;;9.33;80.07
84496;BME280;74855;51.206;17.408;2024-03-02T01:50:07;99086.38;;;9.36;80.10
84496;BME280;74855;51.206;17.408;2024-03-02T01:55:05;99094.06;;;9.38;79.95
84496;BME280;74855;51.206;17.408;2024-03-02T02:00:01;99087.78;;;9.39;80.26
84496;BME280;74855;51.206;17.408;2024-03-02T02:04:57;99087.09;;;9.43;79.70
84496;BME280;74855;51.206;17.408;2024-03-02T02:09:52;99082.03;;;9.42;79.84
84496;BME280;74855;51.206;17.408;2024-03-02T02:14:50;99082.28;;;9.40;80.22
84496;BME280;74855;51.206;17.408;2024-03-02T02:19:46;99081.13;;;9.36;80.27
84496;BME280;74855;51.206;17.408;2024-03-02T02:24:43;99076.56;;;9.32;80.05
84496;BME280;74855;51.206;17.408;2024-03-02T02:29:39;99079.53;;;9.23;80.16
84496;BME280;74855;51.206;17.408;2024-03-02T02:34:35;99068.56;;;9.15;79.88
84496;BME280;74855;51.206;17.408;2024-03-02T02:39:30;99066.13;;;9.02;79.96
84496;BME280;74855;51.206;17.408;2024-03-02T02:44:27;99063.91;;;8.87;80.33
84496;BME280;74855;51.206;17.408;2024-03-02T02:49:23;99055.88;;;8.70;79.98
84496;BME280;74855;51.206;17.408;2024-03-02T02:54:18;99047.59;;;8.55;80.15
84496;BME280;74855;51.206;17.408;2024-03-02T02:59:14;99054.06;;;8.41;80.25
84496;BME280;74855;51.206;17.408;2024-03-02T03:04:11;99056.00;;;8.27;80.45
84496;BME280;74855;51.206;17.408;2024-03-02T03:09:07;99049.69;;;8.17;80.61
84496;BME280;74855;51.206;17.408;2024-03-02T03:14:03;99058.31;;;8.05;80.77
84496;BME280;74855;51.206;17.408;2024-03-02T03:18:59;99061.97;;;8.04;81.08
84496;BME280;74855;51.206;17.408;2024-03-02T03:23:56;99071.94;;;8.14;81.44
84496;BME280;74855;51.206;17.408;2024-03-02T03:28:52;99069.59;;;8.24;81.66
84496;BME280;74855;51.206;17.408;2024-03-02T03:33:48;99071.84;;;8.39;81.78
84496;BME280;74855;51.206;17.408;2024-03-02T03:38:44;99075.09;;;8.53;81.54
84496;BME280;74855;51.206;17.408;2024-03-02T03:43:41;99077.56;;;8.66;81.96
84496;BME280;74855;51.206;17.408;2024-03-02T03:48:37;99077.03;;;8.75;81.74
84496;BME280;74855;51.206;17.408;2024-03-02T03:53:32;99079.91;;;8.85;81.53
84496;BME280;74855;51.206;17.408;2024-03-02T03:58:28;99071.13;;;8.92;81.35
84496;BME280;74855;51.206;17.408;2024-03-02T04:03:25;99077.66;;;9.01;81.19
84496;BME280;74855;51.206;17.408;2024-03-02T04:08:21;99072.75;;;9.04;81.03
84496;BME280;74855;51.206;17.408;2024-03-02T04:13:17;99087.06;;;9.08;81.35
84496;BME280;74855;51.206;17.408;2024-03-02T04:18:13;99090.81;;;9.12;80.60
84496;BME280;74855;51.206;17.408;2024-03-02T04:23:10;99090.34;;;9.15;80.38
84496;BME280;74855;51.206;17.408;2024-03-02T04:28:07;99084.66;;;9.18;80.15
84496;BME280;74855;51.206;17.408;2024-03-02T04:33:02;99086.28;;;9.19;80.33
84496;BME280;74855;51.206;17.408;2024-03-02T04:37:58;99084.66;;;9.18;79.97
84496;BME280;74855;51.206;17.408;2024-03-02T04:42:55;99082.59;;;9.09;80.13
84496;BME280;74855;51.206;17.408;2024-03-02T04:47:51;99088.72;;;8.91;79.88
84496;BME280;74855;51.206;17.408;2024-03-02T04:52:47;99093.81;;;8.74;79.61
84496;BME280;74855;51.206;17.408;2024-03-02T04:57:43;99096.28;;;8.58;80.02
84496;BME280;74855;51.206;17.408;2024-03-02T05:02:40;99095.41;;;8.45;80.02
84496;BME280;74855;51.206;17.408;2024-03-02T05:07:36;99105.06;;;8.33;80.12
84496;BME280;74855;51.206;17.408;2024-03-02T05:12:31;99102.94;;;8.24;80.20
84496;BME280;74855;51.206;17.408;2024-03-02T05:17:27;99117.34;;;8.15;80.43
84496;BME280;74855;51.206;17.408;2024-03-02T05:22:24;99122.69;;;8.08;80.14
84496;BME280;74855;51.206;17.408;2024-03-02T05:27:20;99116.13;;;7.99;80.33
84496;BME280;74855;51.206;17.408;2024-03-02T05:32:15;99116.41;;;7.91;80.33
84496;BME280;74855;51.206;17.408;2024-03-02T05:37:11;99123.53;;;7.84;80.33
84496;BME280;74855;51.206;17.408;2024-03-02T05:42:08;99123.31;;;7.67;80.01
84496;BME280;74855;51.206;17.408;2024-03-02T05:47:05;99119.56;;;7.56;80.02
84496;BME280;74855;51.206;17.408;2024-03-02T05:52:00;99119.25;;;7.46;80.34
84496;BME280;74855;51.206;17.408;2024-03-02T05:56:56;99117.03;;;7.43;80.41
84496;BME280;74855;51.206;17.408;2024-03-02T06:01:53;99130.41;;;7.42;80.45
84496;BME280;74855;51.206;17.408;2024-03-02T06:06:49;99136.66;;;7.41;80.19
84496;BME280;74855;51.206;17.408;2024-03-02T06:11:44;99141.69;;;7.42;80.23
84496;BME280;74855;51.206;17.408;2024-03-02T06:16:40;99149.09;;;7.45;80.21
84496;BME280;74855;51.206;17.408;2024-03-02T06:21:37;99151.47;;;7.53;80.63
84496;BME280;74855;51.206;17.408;2024-03-02T06:26:33;99142.47;;;7.68;80.41
84496;BME280;74855;51.206;17.408;2024-03-02T06:31:28;99154.44;;;7.82;80.23
84496;BME280;74855;51.206;17.408;2024-03-02T06:36:24;99158.75;;;7.94;80.13
84496;BME280;74855;51.206;17.408;2024-03-02T06:41:21;99158.34;;;8.16;80.24
84496;BME280;74855;51.206;17.408;2024-03-02T06:46:17;99175.25;;;8.44;79.80
84496;BME280;74855;51.206;17.408;2024-03-02T06:51:12;99171.19;;;8.78;79.43
84496;BME280;74855;51.206;17.408;2024-03-02T06:56:08;99167.78;;;9.19;79.16
84496;BME280;74855;51.206;17.408;2024-03-02T07:01:05;99166.94;;;9.60;79.15
84496;BME280;74855;51.206;17.408;2024-03-02T07:06:00;99168.69;;;9.90;78.30
84496;BME280;74855;51.206;17.408;2024-03-02T07:10:56;99171.78;;;10.10;77.99
84496;BME280;74855;51.206;17.408;2024-03-02T07:15:52;99179.00;;;10.26;77.71
84496;BME280;74855;51.206;17.408;2024-03-02T07:20:49;99183.19;;;10.51;77.79
84496;BME280;74855;51.206;17.408;2024-03-02T07:25:44;99192.25;;;10.83;76.68
84496;BME280;74855;51.206;17.408;2024-03-02T07:30:40;99182.84;;;11.15;75.55
84496;BME280;74855;51.206;17.408;2024-03-02T07:35:36;99191.75;;;11.43;75.82
84496;BME280;74855;51.206;17.408;2024-03-02T07:40:33;99195.53;;;11.63;74.55
84496;BME280;74855;51.206;17.408;2024-03-02T07:45:29;99211.63;;;11.62;74.05
84496;BME280;74855;51.206;17.408;2024-03-02T07:50:24;99214.25;;;11.62;74.01
84496;BME280;74855;51.206;17.408;2024-03-02T07:55:20;99220.63;;;11.78;73.54
84496;BME280;74855;51.206;17.408;2024-03-02T08:00:18;99215.00;;;12.08;72.63
84496;BME280;74855;51.206;17.408;2024-03-02T08:05:14;99214.69;;;12.42;72.27
84496;BME280;74855;51.206;17.408;2024-03-02T08:10:10;99213.41;;;12.89;72.03
84496;BME280;74855;51.206;17.408;2024-03-02T08:15:07;99213.84;;;13.56;70.48
84496;BME280;74855;51.206;17.408;2024-03-02T08:20:06;99207.97;;;14.23;69.21
84496;BME280;74855;51.206;17.408;2024-03-02T08:25:02;99208.81;;;14.80;67.11
84496;BME280;74855;51.206;17.408;2024-03-02T08:29:58;99209.72;;;15.21;65.28
84496;BME280;74855;51.206;17.408;2024-03-02T08:34:54;99211.41;;;15.73;65.39
84496;BME280;74855;51.206;17.408;2024-03-02T08:39:51;99206.84;;;16.19;63.69
84496;BME280;74855;51.206;17.408;2024-03-02T08:44:47;99208.38;;;16.35;60.87
84496;BME280;74855;51.206;17.408;2024-03-02T08:49:42;99209.94;;;16.57;61.14
84496;BME280;74855;51.206;17.408;2024-03-02T08:54:38;99212.47;;;16.92;59.93
84496;BME280;74855;51.206;17.408;2024-03-02T08:59:35;99212.47;;;17.75;58.26
84496;BME280;74855;51.206;17.408;2024-03-02T09:04:31;99206.25;;;18.66;55.59
84496;BME280;74855;51.206;17.408;2024-03-02T09:09:27;99204.13;;;20.54;54.02
84496;BME280;74855;51.206;17.408;2024-03-02T09:14:22;99211.44;;;21.62;48.54
84496;BME280;74855;51.206;17.408;2024-03-02T09:19:19;99209.59;;;22.24;46.76
84496;BME280;74855;51.206;17.408;2024-03-02T09:24:15;99224.44;;;21.68;47.53
84496;BME280;74855;51.206;17.408;2024-03-02T09:29:11;99223.44;;;20.92;46.70
84496;BME280;74855;51.206;17.408;2024-03-02T09:34:06;99216.75;;;20.21;47.45
84496;BME280;74855;51.206;17.408;2024-03-02T09:39:03;99219.94;;;19.21;48.69
84496;BME280;74855;51.206;17.408;2024-03-02T09:43:59;99214.78;;;18.39;50.73
84496;BME280;74855;51.206;17.408;2024-03-02T09:48:56;99214.44;;;17.93;51.76
84496;BME280;74855;51.206;17.408;2024-03-02T09:53:52;99212.09;;;17.87;52.35
84496;BME280;74855;51.206;17.408;2024-03-02T09:58:50;99216.50;;;18.01;52.59
84496;BME280;74855;51.206;17.408;2024-03-02T10:03:47;99211.25;;;18.20;52.71
84496;BME280;74855;51.206;17.408;2024-03-02T10:08:44;99209.13;;;18.46;51.29
84496;BME280;74855;51.206;17.408;2024-03-02T10:13:39;99207.47;;;18.50;50.81
84496;BME280;74855;51.206;17.408;2024-03-02T10:18:36;99206.91;;;18.77;50.48
84496;BME280;74855;51.206;17.408;2024-03-02T10:23:32;99190.75;;;18.87;50.44
84496;BME280;74855;51.206;17.408;2024-03-02T10:28:34;99196.25;;;18.96;49.49
84496;BME280;74855;51.206;17.408;2024-03-02T10:33:30;99193.00;;;18.99;48.98
84496;BME280;74855;51.206;17.408;2024-03-02T10:38:28;99184.91;;;19.41;49.05
84496;BME280;74855;51.206;17.408;2024-03-02T10:43:23;99187.53;;;19.79;48.47
84496;BME280;74855;51.206;17.408;2024-03-02T10:48:19;99188.00;;;20.13;46.99
84496;BME280;74855;51.206;17.408;2024-03-02T10:53:15;99193.88;;;20.29;46.64
84496;BME280;74855;51.206;17.408;2024-03-02T10:58:12;99193.09;;;21.19;45.86
84496;BME280;74855;51.206;17.408;2024-03-02T11:03:10;99186.63;;;22.09;44.51
84496;BME280;74855;51.206;17.408;2024-03-02T11:08:07;99195.69;;;22.61;42.63
84496;BME280;74855;51.206;17.408;2024-03-02T11:13:05;99188.19;;;22.41;44.07
84496;BME280;74855;51.206;17.408;2024-03-02T11:18:04;99183.09;;;22.31;44.04
84496;BME280;74855;51.206;17.408;2024-03-02T11:23:05;99186.00;;;21.81;44.25
84496;BME280;74855;51.206;17.408;2024-03-02T11:28:03;99182.66;;;21.31;44.52
84496;BME280;74855;51.206;17.408;2024-03-02T11:32:59;99183.25;;;20.78;45.50
84496;BME280;74855;51.206;17.408;2024-03-02T11:37:57;99187.34;;;20.62;46.36
84496;BME280;74855;51.206;17.408;2024-03-02T11:42:53;99186.47;;;20.53;46.29
84496;BME280;74855;51.206;17.408;2024-03-02T11:47:50;99185.88;;;21.06;45.43
84496;BME280;74855;51.206;17.408;2024-03-02T11:52:47;99191.00;;;21.30;44.85
84496;BME280;74855;51.206;17.408;2024-03-02T11:57:44;99182.88;;;21.66;44.57
84496;BME280;74855;51.206;17.408;2024-03-02T12:02:39;99179.41;;;22.18;43.58
84496;BME280;74855;51.206;17.408;2024-03-02T12:07:36;99183.50;;;22.55;43.31
84496;BME280;74855;51.206;17.408;2024-03-02T12:12:34;99173.66;;;22.42;42.72
84496;BME280;74855;51.206;17.408;2024-03-02T12:17:31;99167.19;;;22.04;42.69
84496;BME280;74855;51.206;17.408;2024-03-02T12:22:28;99173.97;;;21.79;43.18
84496;BME280;74855;51.206;17.408;2024-03-02T12:27:24;99172.75;;;21.85;43.72
84496;BME280;74855;51.206;17.408;2024-03-02T12:32:20;99171.59;;;21.99;43.86
84496;BME280;74855;51.206;17.408;2024-03-02T12:37:18;99168.03;;;22.13;43.33
84496;BME280;74855;51.206;17.408;2024-03-02T12:42:13;99167.63;;;21.97;42.50
84496;BME280;74855;51.206;17.408;2024-03-02T12:47:09;99163.53;;;21.77;42.29
84496;BME280;74855;51.206;17.408;2024-03-02T12:52:05;99155.69;;;21.58;43.08
84496;BME280;74855;51.206;17.408;2024-03-02T12:57:03;99158.81;;;21.52;43.74
84496;BME280;74855;51.206;17.408;2024-03-02T13:01:59;99153.78;;;21.50;43.36
84496;BME280;74855;51.206;17.408;2024-03-02T13:06:55;99157.91;;;21.34;43.14
84496;BME280;74855;51.206;17.408;2024-03-02T13:11:51;99158.38;;;21.00;44.37
84496;BME280;74855;51.206;17.408;2024-03-02T13:16:49;99150.03;;;21.02;44.36
84496;BME280;74855;51.206;17.408;2024-03-02T13:21:45;99151.91;;;20.79;44.23
84496;BME280;74855;51.206;17.408;2024-03-02T13:26:41;99155.19;;;20.49;44.45
84496;BME280;74855;51.206;17.408;2024-03-02T13:31:36;99143.69;;;20.07;45.42
84496;BME280;74855;51.206;17.408;2024-03-02T13:36:33;99140.38;;;19.83;45.71
84496;BME280;74855;51.206;17.408;2024-03-02T13:41:29;99146.09;;;19.63;46.19
84496;BME280;74855;51.206;17.408;2024-03-02T13:46:25;99151.91;;;19.32;46.73
84496;BME280;74855;51.206;17.408;2024-03-02T13:51:21;99150.53;;;18.97;46.80
84496;BME280;74855;51.206;17.408;2024-03-02T13:56:18;99156.31;;;18.67;48.19
84496;BME280;74855;51.206;17.408;2024-03-02T14:01:14;99169.41;;;18.39;48.66
84496;BME280;74855;51.206;17.408;2024-03-02T14:06:09;99163.91;;;18.07;49.77
84496;BME280;74855;51.206;17.408;2024-03-02T14:11:05;99161.88;;;17.70;50.02
84496;BME280;74855;51.206;17.408;2024-03-02T14:16:02;99167.22;;;17.31;50.57
84496;BME280;74855;51.206;17.408;2024-03-02T14:20:58;99179.97;;;16.90;51.89
84496;BME280;74855;51.206;17.408;2024-03-02T14:25:54;99173.19;;;16.54;51.91
84496;BME280;74855;51.206;17.408;2024-03-02T14:30:49;99170.09;;;16.26;53.08
84496;BME280;74855;51.206;17.408;2024-03-02T14:35:46;99182.13;;;16.03;53.25
84496;BME280;74855;51.206;17.408;2024-03-02T14:40:42;99170.47;;;15.74;54.05
84496;BME280;74855;51.206;17.408;2024-03-02T14:45:38;99161.16;;;15.51;54.78
84496;BME280;74855;51.206;17.408;2024-03-02T14:50:33;99163.78;;;15.31;55.45
84496;BME280;74855;51.206;17.408;2024-03-02T14:55:30;99155.81;;;15.16;56.23
84496;BME280;74855;51.206;17.408;2024-03-02T15:00:26;99156.34;;;15.03;56.84
84496;BME280;74855;51.206;17.408;2024-03-02T15:05:22;99157.09;;;14.88;57.30
84496;BME280;74855;51.206;17.408;2024-03-02T15:10:17;99157.06;;;14.78;57.64
84496;BME280;74855;51.206;17.408;2024-03-02T15:15:15;99164.47;;;14.71;57.97
84496;BME280;74855;51.206;17.408;2024-03-02T15:20:11;99167.13;;;14.66;58.19
84496;BME280;74855;51.206;17.408;2024-03-02T15:25:07;99159.09;;;14.56;58.65
84496;BME280;74855;51.206;17.408;2024-03-02T15:30:04;99158.25;;;14.40;58.80
84496;BME280;74855;51.206;17.408;2024-03-02T15:35:01;99154.22;;;14.32;59.30
84496;BME280;74855;51.206;17.408;2024-03-02T15:39:57;99161.31;;;14.22;59.30
84496;BME280;74855;51.206;17.408;2024-03-02T15:44:52;99157.56;;;14.13;59.52
84496;BME280;74855;51.206;17.408;2024-03-02T15:49:49;99166.78;;;14.05;59.90
84496;BME280;74855;51.206;17.408;2024-03-02T15:54:47;99164.09;;;13.95;60.49
84496;BME280;74855;51.206;17.408;2024-03-02T15:59:43;99163.75;;;13.86;60.96
84496;BME280;74855;51.206;17.408;2024-03-02T16:04:40;99161.53;;;13.73;61.47
84496;BME280;74855;51.206;17.408;2024-03-02T16:09:38;99146.28;;;13.53;61.83
84496;BME280;74855;51.206;17.408;2024-03-02T16:14:39;99146.50;;;13.47;62.25
84496;BME280;74855;51.206;17.408;2024-03-02T16:19:35;99149.56;;;13.34;62.28
84496;BME280;74855;51.206;17.408;2024-03-02T16:24:30;99153.19;;;13.22;62.70
84496;BME280;74855;51.206;17.408;2024-03-02T16:29:26;99143.78;;;13.10;62.27
84496;BME280;74855;51.206;17.408;2024-03-02T16:34:23;99157.44;;;13.02;63.28
84496;BME280;74855;51.206;17.408;2024-03-02T16:39:19;99155.19;;;12.89;63.55
84496;BME280;74855;51.206;17.408;2024-03-02T16:44:14;99153.19;;;12.74;64.11
84496;BME280;74855;51.206;17.408;2024-03-02T16:49:11;99150.94;;;12.61;64.68
84496;BME280;74855;51.206;17.408;2024-03-02T16:54:08;99153.47;;;12.51;64.45
84496;BME280;74855;51.206;17.408;2024-03-02T16:59:04;99166.56;;;12.40;65.37
84496;BME280;74855;51.206;17.408;2024-03-02T17:04:00;99166.75;;;12.34;66.45
84496;BME280;74855;51.206;17.408;2024-03-02T17:08:55;99160.09;;;12.31;65.98
84496;BME280;74855;51.206;17.408;2024-03-02T17:13:52;99168.03;;;12.31;66.33
84496;BME280;74855;51.206;17.408;2024-03-02T17:18:48;99169.88;;;12.31;67.13
84496;BME280;74855;51.206;17.408;2024-03-02T17:23:44;99161.13;;;12.30;67.30
84496;BME280;74855;51.206;17.408;2024-03-02T17:28:40;99166.41;;;12.30;67.30
84496;BME280;74855;51.206;17.408;2024-03-02T17:33:37;99166.41;;;12.30;67.86
84496;BME280;74855;51.206;17.408;2024-03-02T17:38:32;99167.72;;;12.28;68.05
84496;BME280;74855;51.206;17.408;2024-03-02T17:43:28;99164.28;;;12.27;67.94
84496;BME280;74855;51.206;17.408;2024-03-02T17:48:24;99157.06;;;12.23;68.33
84496;BME280;74855;51.206;17.408;2024-03-02T17:53:21;99160.22;;;12.20;68.29
84496;BME280;74855;51.206;17.408;2024-03-02T17:58:18;99160.69;;;12.17;68.61
84496;BME280;74855;51.206;17.408;2024-03-02T18:03:14;99163.81;;;12.14;68.54
84496;BME280;74855;51.206;17.408;2024-03-02T18:08:10;99172.78;;;12.13;69.11
84496;BME280;74855;51.206;17.408;2024-03-02T18:13:07;99169.34;;;12.12;69.52
84496;BME280;74855;51.206;17.408;2024-03-02T18:18:03;99174.88;;;12.11;69.33
84496;BME280;74855;51.206;17.408;2024-03-02T18:22:59;99171.38;;;12.05;69.64
84496;BME280;74855;51.206;17.408;2024-03-02T18:27:54;99174.16;;;11.98;69.31
84496;BME280;74855;51.206;17.408;2024-03-02T18:32:51;99160.84;;;11.88;69.86
84496;BME280;74855;51.206;17.408;2024-03-02T18:37:48;99164.09;;;11.79;69.05
84496;BME280;74855;51.206;17.408;2024-03-02T18:42:44;99159.22;;;11.71;69.77
84496;BME280;74855;51.206;17.408;2024-03-02T18:47:39;99163.28;;;11.61;69.83
84496;BME280;74855;51.206;17.408;2024-03-02T18:52:37;99163.38;;;11.50;70.44
84496;BME280;74855;51.206;17.408;2024-03-02T18:57:32;99163.47;;;11.38;71.23
84496;BME280;74855;51.206;17.408;2024-03-02T19:02:28;99166.94;;;11.27;70.71
84496;BME280;74855;51.206;17.408;2024-03-02T19:07:24;99165.66;;;11.13;71.33
84496;BME280;74855;51.206;17.408;2024-03-02T19:12:21;99171.31;;;11.05;71.73
84496;BME280;74855;51.206;17.408;2024-03-02T19:17:17;99172.91;;;11.06;71.76
84496;BME280;74855;51.206;17.408;2024-03-02T19:22:13;99162.91;;;11.08;71.14
84496;BME280;74855;51.206;17.408;2024-03-02T19:27:09;99167.72;;;11.11;71.95
84496;BME280;74855;51.206;17.408;2024-03-02T19:32:06;99166.47;;;11.13;71.02
84496;BME280;74855;51.206;17.408;2024-03-02T19:37:02;99161.41;;;11.12;71.86
84496;BME280;74855;51.206;17.408;2024-03-02T19:41:57;99167.41;;;11.07;71.47
84496;BME280;74855;51.206;17.408;2024-03-02T19:46:53;99164.34;;;10.99;71.49
84496;BME280;74855;51.206;17.408;2024-03-02T19:51:50;99164.94;;;10.89;70.90
84496;BME280;74855;51.206;17.408;2024-03-02T19:56:48;99167.59;;;10.89;72.32
84496;BME280;74855;51.206;17.408;2024-03-02T20:01:44;99161.28;;;10.90;71.75
84496;BME280;74855;51.206;17.408;2024-03-02T20:06:39;99165.59;;;10.96;72.04
84496;BME280;74855;51.206;17.408;2024-03-02T20:11:36;99160.91;;;10.98;72.37
84496;BME280;74855;51.206;17.408;2024-03-02T20:16:32;99166.50;;;11.02;72.35
84496;BME280;74855;51.206;17.408;2024-03-02T20:21:28;99160.19;;;11.03;71.93
84496;BME280;74855;51.206;17.408;2024-03-02T20:26:24;99170.28;;;11.06;72.02
84496;BME280;74855;51.206;17.408;2024-03-02T20:31:21;99167.41;;;11.07;71.93
84496;BME280;74855;51.206;17.408;2024-03-02T20:36:16;99169.00;;;11.08;71.73
84496;BME280;74855;51.206;17.408;2024-03-02T20:41:15;99162.69;;;11.09;71.22
84496;BME280;74855;51.206;17.408;2024-03-02T20:46:11;99168.75;;;11.10;71.66
84496;BME280;74855;51.206;17.408;2024-03-02T20:51:09;99166.94;;;11.10;71.81
84496;BME280;74855;51.206;17.408;2024-03-02T20:56:05;99164.53;;;11.09;71.48
84496;BME280;74855;51.206;17.408;2024-03-02T21:01:01;99167.41;;;11.07;71.36
84496;BME280;74855;51.206;17.408;2024-03-02T21:05:58;99163.72;;;11.08;71.69
84496;BME280;74855;51.206;17.408;2024-03-02T21:10:55;99170.06;;;11.07;72.53
84496;BME280;74855;51.206;17.408;2024-03-02T21:15:50;99176.00;;;11.03;72.30
84496;BME280;74855;51.206;17.408;2024-03-02T21:20:46;99169.41;;;11.00;71.43
84496;BME280;74855;51.206;17.408;2024-03-02T21:25:42;99175.13;;;10.97;72.15
84496;BME280;74855;51.206;17.408;2024-03-02T21:30:40;99168.47;;;10.95;72.54
84496;BME280;74855;51.206;17.408;2024-03-02T21:35:36;99167.34;;;10.91;72.72
84496;BME280;74855;51.206;17.408;2024-03-02T21:40:32;99171.03;;;10.90;72.21
84496;BME280;74855;51.206;17.408;2024-03-02T21:45:27;99174.47;;;10.90;72.57
84496;BME280;74855;51.206;17.408;2024-03-02T21:50:24;99184.47;;;10.88;71.97
84496;BME280;74855;51.206;17.408;2024-03-02T21:55:20;99179.06;;;10.83;72.04
84496;BME280;74855;51.206;17.408;2024-03-02T22:00:16;99171.88;;;10.78;72.61
84496;BME280;74855;51.206;17.408;2024-03-02T22:05:11;99178.41;;;10.76;72.32
84496;BME280;74855;51.206;17.408;2024-03-02T22:10:09;99181.31;;;10.74;72.74
84496;BME280;74855;51.206;17.408;2024-03-02T22:15:05;99172.25;;;10.70;72.37
84496;BME280;74855;51.206;17.408;2024-03-02T22:20:01;99179.34;;;10.70;72.71
84496;BME280;74855;51.206;17.408;2024-03-02T22:24:56;99173.53;;;10.68;72.71
84496;BME280;74855;51.206;17.408;2024-03-02T22:29:53;99169.75;;;10.64;72.87
84496;BME280;74855;51.206;17.408;2024-03-02T22:34:49;99163.91;;;10.62;73.12
84496;BME280;74855;51.206;17.408;2024-03-02T22:39:45;99164.06;;;10.55;73.24
84496;BME280;74855;51.206;17.408;2024-03-02T22:44:40;99168.84;;;10.58;73.69
84496;BME280;74855;51.206;17.408;2024-03-02T22:49:38;99167.81;;;10.59;73.69
84496;BME280;74855;51.206;17.408;2024-03-02T22:54:34;99165.97;;;10.60;73.86
84496;BME280;74855;51.206;17.408;2024-03-02T22:59:30;99164.94;;;10.61;73.15
84496;BME280;74855;51.206;17.408;2024-03-02T23:04:25;99164.16;;;10.60;73.01
84496;BME280;74855;51.206;17.408;2024-03-02T23:09:22;99162.22;;;10.56;73.88
84496;BME280;74855;51.206;17.408;2024-03-02T23:14:18;99163.47;;;10.53;73.68
84496;BME280;74855;51.206;17.408;2024-03-02T23:19:13;99163.84;;;10.45;73.88
84496;BME280;74855;51.206;17.408;2024-03-02T23:24:09;99160.19;;;10.34;74.12
84496;BME280;74855;51.206;17.408;2024-03-02T23:29:06;99164.78;;;10.27;73.90
84496;BME280;74855;51.206;17.408;2024-03-02T23:34:02;99153.69;;;10.25;74.35
84496;BME280;74855;51.206;17.408;2024-03-02T23:38:59;99148.88;;;10.22;73.77
84496;BME280;74855;51.206;17.408;2024-03-02T23:43:54;99135.94;;;10.21;73.96
84496;BME280;74855;51.206;17.408;2024-03-02T23:48:51;99142.22;;;10.20;74.29
84496;BME280;74855;51.206;17.408;2024-03-02T23:53:47;99133.19;;;10.16;74.95
84496;BME280;74855;51.206;17.408;2024-03-02T23:58:43;99127.00;;;10.10;75.10
